To NAV CANADA Home Page Login to a new session Search on AWWS site Feedback and Comments Disclaimer Vers la page française équivalente Tips FAQ What's new on the site To the Forecasts and Observations / NOTAM section To "File a Flight Plan" website Publications and other links Update of the User's profile FIC Telephone Numbers My Weather Data Folder Route Weather Data Regional Weather Data Local Weather Data To the Forecasts and Observations / NOTAM section
Request Generated 10/17/2017 at 01:56:19 UTC . Weather information available at that time is displayed.

METAR/TAF

HIGH LEVEL/AB    (show WxCam)

METAR CYOJ 170100Z 00000KT 15SM BKN260 05/02 A2951 RMK CS6 SLP012=
METAR CYOJ 170000Z 15002KT 15SM FEW075 BKN260 07/01 A2952 RMK AC1CS6
AC TR SLP015=
METAR CYOJ 162300Z 16004KT 15SM FEW075 BKN260 08/03 A2953 RMK AC1CS6
SLP018=

TAF CYOJ 170038Z 1701/1713 VRB03KT P6SM SCT080 BKN250
FM170700 VRB03KT P6SM SCT030 BKN080 TEMPO 1707/1710 P6SM -SHRA
BKN030 PROB30 1707/1710 1SM BR BKN004
FM171000 VRB03KT 6SM BR SCT005 OVC020 TEMPO 1710/1713 2SM -DZ BR
OVC005 PROB30 1710/1713 1/2SM -FZRA FZFG VV002
RMK NXT FCST BY 170700Z=
Your time UTC time
Weather data provided by Environment Canada and NAV CANADA